createdAt,value
2023-10-13T00:02:03.057Z,100.00
2023-10-13T00:04:34.048Z,100.00
2023-10-13T00:07:03.489Z,100.00
2023-10-13T00:09:36.816Z,100.00
2023-10-13T00:12:15.078Z,100.00
2023-10-13T00:14:43.175Z,100.00
2023-10-13T00:17:20.433Z,100.00
2023-10-13T00:19:48.374Z,100.00
2023-10-13T00:22:21.143Z,100.00
2023-10-13T00:24:49.468Z,100.00
2023-10-13T00:27:37.770Z,100.00
2023-10-13T00:30:19.187Z,100.00
2023-10-13T00:32:58.025Z,100.00
2023-10-13T00:35:38.547Z,100.00
2023-10-13T00:38:18.027Z,100.00
2023-10-13T00:40:53.336Z,100.00
2023-10-13T00:43:22.480Z,100.00
2023-10-13T00:45:56.788Z,100.00
2023-10-13T00:48:34.659Z,100.00
2023-10-13T00:51:08.396Z,100.00
2023-10-13T00:53:45.685Z,100.00
2023-10-13T00:56:28.469Z,100.00
2023-10-13T00:59:00.458Z,100.00
2023-10-13T01:01:34.431Z,100.00
2023-10-13T01:04:04.652Z,100.00
2023-10-13T01:06:32.665Z,100.00
2023-10-13T01:09:13.727Z,100.00
2023-10-13T01:11:46.134Z,100.00
2023-10-13T01:14:16.450Z,100.00
2023-10-13T01:16:47.710Z,100.00
2023-10-13T01:19:21.232Z,100.00
2023-10-13T01:21:49.394Z,100.00
2023-10-13T01:24:20.176Z,100.00
2023-10-13T01:26:52.595Z,100.00
2023-10-13T01:29:20.902Z,100.00
2023-10-13T01:31:48.832Z,100.00
2023-10-13T01:34:23.567Z,100.00
2023-10-13T01:36:54.465Z,100.00
2023-10-13T01:39:29.967Z,100.00
2023-10-13T01:41:57.900Z,100.00
2023-10-13T01:44:33.798Z,100.00
2023-10-13T01:47:08.398Z,100.00
2023-10-13T01:49:49.268Z,100.00
2023-10-13T01:52:17.421Z,100.00
2023-10-13T01:54:52.148Z,100.00
2023-10-13T01:57:20.059Z,100.00
2023-10-13T01:59:49.363Z,100.00
2023-10-13T02:02:30.831Z,100.00
2023-10-13T02:05:03.481Z,100.00
2023-10-13T02:07:32.204Z,100.00
2023-10-13T02:10:00.336Z,100.00
2023-10-13T02:12:38.083Z,100.00
2023-10-13T02:15:06.327Z,100.00
2023-10-13T02:17:43.911Z,100.00
2023-10-13T02:20:16.097Z,100.00
2023-10-13T02:22:52.831Z,100.00
2023-10-13T02:25:47.280Z,100.00
2023-10-13T02:28:15.949Z,100.00
2023-10-13T02:30:50.131Z,100.00
2023-10-13T02:33:30.869Z,100.00
2023-10-13T02:35:59.821Z,100.00
2023-10-13T02:38:34.627Z,100.00
2023-10-13T02:41:08.999Z,100.00
2023-10-13T02:43:37.724Z,100.00
2023-10-13T02:46:06.149Z,100.00
2023-10-13T02:48:43.533Z,100.00
2023-10-13T02:51:18.011Z,100.00
2023-10-13T02:53:50.074Z,100.00
2023-10-13T02:56:24.387Z,100.00
2023-10-13T02:59:06.382Z,100.00
2023-10-13T03:01:37.536Z,100.00
2023-10-13T03:04:09.427Z,100.00
2023-10-13T03:06:41.386Z,100.00
2023-10-13T03:09:19.862Z,100.00
2023-10-13T03:11:51.086Z,100.00
2023-10-13T03:14:27.225Z,100.00
2023-10-13T03:16:56.745Z,100.00
2023-10-13T03:19:34.294Z,100.00
2023-10-13T03:22:26.675Z,100.00
2023-10-13T03:24:54.649Z,100.00
2023-10-13T03:27:25.828Z,100.00
2023-10-13T03:29:56.543Z,100.00
2023-10-13T03:32:28.354Z,100.00
2023-10-13T03:35:12.799Z,100.00
2023-10-13T03:37:40.409Z,100.00
2023-10-13T03:40:22.985Z,100.00
2023-10-13T03:43:06.207Z,100.00
2023-10-13T03:45:49.282Z,100.00
2023-10-13T03:48:27.300Z,100.00
2023-10-13T03:51:12.019Z,100.00
2023-10-13T03:53:56.557Z,100.00
2023-10-13T03:56:32.924Z,100.00
2023-10-13T03:59:06.513Z,100.00
2023-10-13T04:01:44.593Z,100.00
2023-10-13T04:04:13.786Z,100.00
2023-10-13T04:06:47.366Z,100.00
2023-10-13T04:09:31.323Z,100.00
2023-10-13T04:12:06.549Z,100.00
2023-10-13T04:14:54.927Z,100.00
2023-10-13T04:17:27.645Z,100.00
2023-10-13T04:20:09.189Z,100.00
2023-10-13T04:22:45.307Z,100.00
2023-10-13T04:25:38.314Z,100.00
2023-10-13T04:28:28.291Z,100.00
2023-10-13T04:30:59.577Z,100.00
2023-10-13T04:33:37.642Z,100.00
2023-10-13T04:36:23.379Z,100.00
2023-10-13T04:39:07.731Z,100.00
2023-10-13T04:41:46.730Z,100.00
2023-10-13T04:44:37.274Z,100.00
2023-10-13T04:47:04.848Z,100.00
2023-10-13T04:49:51.334Z,100.00
2023-10-13T04:52:38.848Z,100.00
2023-10-13T04:55:42.444Z,100.00
2023-10-13T04:58:29.146Z,100.00
2023-10-13T05:01:22.512Z,100.00
2023-10-13T05:04:11.875Z,100.00
2023-10-13T05:06:45.834Z,100.00
2023-10-13T05:09:32.611Z,100.00
2023-10-13T05:12:18.780Z,100.00
2023-10-13T05:15:06.162Z,100.00
2023-10-13T05:17:54.286Z,100.00
2023-10-13T05:20:40.731Z,100.00
2023-10-13T05:23:27.061Z,100.00
2023-10-13T05:26:13.379Z,100.00
2023-10-13T05:28:59.621Z,100.00
2023-10-13T05:31:46.006Z,100.00
2023-10-13T05:34:32.204Z,100.00
2023-10-13T05:37:18.701Z,100.00
2023-10-13T05:43:40.056Z,100.00
2023-10-13T05:46:26.449Z,100.00
2023-10-13T05:49:01.061Z,100.00
2023-10-13T05:51:45.280Z,100.00
2023-10-13T05:54:15.781Z,100.00
2023-10-13T05:57:09.029Z,100.00
2023-10-13T05:59:57.630Z,100.00
2023-10-13T06:02:44.777Z,100.00
2023-10-13T06:05:32.343Z,100.00
2023-10-13T06:08:18.654Z,100.00
2023-10-13T06:11:05.931Z,100.00
2023-10-13T06:13:52.312Z,100.00
2023-10-13T06:16:38.579Z,100.00
2023-10-13T06:19:25.496Z,100.00
2023-10-13T06:22:11.999Z,100.00
2023-10-13T06:24:58.229Z,100.00
2023-10-13T06:27:44.664Z,100.00
2023-10-13T06:30:13.714Z,100.00
2023-10-13T06:32:41.504Z,100.00
2023-10-13T06:35:09.763Z,100.00
2023-10-13T06:37:43.467Z,100.00
2023-10-13T06:40:37.834Z,100.00
2023-10-13T06:43:17.223Z,100.00
2023-10-13T06:45:58.413Z,100.00
2023-10-13T06:48:26.525Z,100.00
2023-10-13T06:50:57.035Z,100.00
2023-10-13T06:53:26.456Z,100.00
2023-10-13T06:56:00.103Z,100.00
2023-10-13T06:58:27.818Z,100.00
2023-10-13T07:00:56.575Z,100.00
2023-10-13T07:03:24.483Z,100.00
2023-10-13T07:05:53.107Z,100.00
2023-10-13T07:08:25.199Z,100.00
2023-10-13T07:11:09.593Z,100.00
2023-10-13T07:13:39.611Z,100.00
2023-10-13T07:16:16.752Z,100.00
2023-10-13T07:18:56.951Z,100.00
2023-10-13T07:21:33.026Z,100.00
2023-10-13T07:24:19.298Z,100.00
2023-10-13T07:26:48.176Z,100.00
2023-10-13T07:29:16.407Z,100.00
2023-10-13T07:31:46.947Z,100.00
2023-10-13T07:34:26.461Z,100.00
2023-10-13T07:36:56.489Z,100.00
2023-10-13T07:39:27.072Z,100.00
2023-10-13T07:42:05.477Z,100.00
2023-10-13T07:44:34.740Z,100.00
2023-10-13T07:47:05.588Z,100.00
2023-10-13T07:49:37.961Z,100.00
2023-10-13T07:52:21.958Z,100.00
2023-10-13T07:55:11.558Z,100.00
2023-10-13T07:57:55.189Z,100.00
2023-10-13T08:00:47.462Z,100.00
2023-10-13T08:03:18.110Z,100.00
2023-10-13T08:06:21.905Z,100.00
2023-10-13T08:08:55.519Z,100.00
2023-10-13T08:11:26.419Z,100.00
2023-10-13T08:14:07.690Z,100.00
2023-10-13T08:17:00.587Z,100.00
2023-10-13T08:19:29.560Z,100.00
2023-10-13T08:22:21.829Z,100.00
2023-10-13T08:24:50.585Z,100.00
2023-10-13T08:27:37.758Z,100.00
2023-10-13T08:30:38.153Z,100.00
2023-10-13T08:33:18.366Z,100.00
2023-10-13T08:36:06.525Z,100.00
2023-10-13T08:38:52.375Z,100.00
2023-10-13T08:41:20.739Z,100.00
2023-10-13T08:43:54.793Z,100.00
2023-10-13T08:46:48.739Z,100.00
2023-10-13T08:49:19.396Z,100.00
2023-10-13T08:51:50.603Z,100.00
2023-10-13T08:54:40.650Z,100.00
2023-10-13T08:57:21.580Z,100.00
2023-10-13T08:59:56.677Z,100.00
2023-10-13T09:02:43.628Z,100.00
2023-10-13T09:05:31.893Z,100.00
2023-10-13T09:08:10.342Z,100.00
2023-10-13T09:11:07.045Z,100.00
2023-10-13T09:13:47.186Z,100.00
2023-10-13T09:16:44.150Z,100.00
2023-10-13T09:19:13.459Z,100.00
2023-10-13T09:21:42.016Z,100.00
2023-10-13T09:24:24.448Z,100.00
2023-10-13T09:26:56.970Z,100.00
2023-10-13T09:29:26.203Z,100.00
2023-10-13T09:32:03.914Z,100.00
2023-10-13T09:34:36.196Z,100.00
2023-10-13T09:37:05.350Z,100.00
2023-10-13T09:39:56.985Z,100.00
2023-10-13T09:42:27.542Z,100.00
2023-10-13T09:45:00.577Z,100.00
2023-10-13T09:47:38.814Z,100.00
2023-10-13T09:50:15.568Z,100.00
2023-10-13T09:52:45.584Z,100.00
2023-10-13T09:55:22.546Z,100.00
2023-10-13T09:58:15.348Z,100.00
2023-10-13T10:01:00.480Z,100.00
2023-10-13T10:03:32.115Z,100.00
2023-10-13T10:06:05.049Z,100.00
2023-10-13T10:08:39.970Z,100.00
2023-10-13T10:11:35.768Z,100.00
2023-10-13T10:14:05.449Z,100.00
2023-10-13T10:16:50.469Z,100.00
2023-10-13T10:19:19.840Z,100.00
2023-10-13T10:21:49.714Z,100.00
2023-10-13T10:24:33.110Z,100.00
2023-10-13T10:27:00.690Z,100.00
2023-10-13T10:29:28.304Z,100.00
2023-10-13T10:31:55.867Z,100.00
2023-10-13T10:34:34.021Z,100.00
2023-10-13T10:37:02.811Z,100.00
2023-10-13T10:39:51.064Z,100.00
2023-10-13T10:42:24.751Z,100.00
2023-10-13T10:44:56.787Z,100.00
2023-10-13T10:47:38.381Z,100.00
2023-10-13T10:50:10.184Z,100.00
2023-10-13T10:52:40.888Z,100.00
2023-10-13T10:55:08.883Z,100.00
2023-10-13T10:57:39.562Z,100.00
2023-10-13T11:00:12.836Z,100.00
2023-10-13T11:02:40.883Z,100.00
2023-10-13T11:05:11.920Z,100.00
2023-10-13T11:07:51.255Z,100.00
2023-10-13T11:10:28.428Z,100.00
2023-10-13T11:12:57.837Z,100.00
2023-10-13T11:15:34.817Z,100.00
2023-10-13T11:18:07.403Z,100.00
2023-10-13T11:20:46.365Z,100.00
2023-10-13T11:23:15.114Z,100.00
2023-10-13T11:25:46.042Z,100.00
2023-10-13T11:28:22.004Z,100.00
2023-10-13T11:30:52.920Z,100.00
2023-10-13T11:33:27.695Z,100.00
2023-10-13T11:35:56.270Z,100.00
2023-10-13T11:38:30.317Z,100.00
2023-10-13T11:41:16.133Z,100.00
2023-10-13T11:44:06.189Z,100.00
2023-10-13T11:46:37.713Z,100.00
2023-10-13T11:49:16.844Z,100.00
2023-10-13T11:51:49.263Z,100.00
2023-10-13T11:54:19.499Z,100.00
2023-10-13T11:56:48.037Z,100.00
2023-10-13T11:59:19.442Z,100.00
2023-10-13T12:02:10.369Z,100.00
2023-10-13T12:04:45.097Z,100.00
2023-10-13T12:07:21.545Z,100.00
2023-10-13T12:09:57.161Z,100.00
2023-10-13T12:12:25.798Z,100.00
2023-10-13T12:14:57.485Z,100.00
2023-10-13T12:17:29.770Z,100.00
2023-10-13T12:19:58.570Z,100.00
2023-10-13T12:22:29.949Z,100.00
2023-10-13T12:24:57.841Z,100.00
2023-10-13T12:27:28.459Z,100.00
2023-10-13T12:29:57.930Z,100.00
2023-10-13T12:32:32.377Z,100.00
2023-10-13T12:35:05.981Z,100.00
2023-10-13T12:37:43.124Z,100.00
2023-10-13T12:40:33.323Z,100.00
2023-10-13T12:43:19.860Z,100.00
2023-10-13T12:46:08.016Z,100.00
2023-10-13T12:48:57.418Z,100.00
2023-10-13T12:51:33.974Z,100.00
2023-10-13T12:54:17.173Z,100.00
2023-10-13T12:56:44.962Z,100.00
2023-10-13T12:59:14.866Z,100.00
2023-10-13T13:01:45.923Z,100.00
2023-10-13T13:04:21.645Z,100.00
2023-10-13T13:06:51.635Z,100.00
2023-10-13T13:09:28.174Z,100.00
2023-10-13T13:11:59.824Z,94.46
2023-10-13T13:14:30.917Z,91.35
2023-10-13T13:17:06.082Z,89.56
2023-10-13T13:19:40.637Z,85.95
2023-10-13T13:22:15.940Z,80.97
2023-10-13T13:24:45.902Z,78.94
2023-10-13T13:27:16.037Z,79.52
2023-10-13T13:29:43.955Z,80.32
2023-10-13T13:32:19.091Z,79.70
2023-10-13T13:34:55.937Z,78.50
2023-10-13T13:37:24.140Z,74.69
2023-10-13T13:39:54.149Z,75.26
2023-10-13T13:42:21.951Z,72.43
2023-10-13T13:44:49.649Z,72.52
2023-10-13T13:47:18.499Z,72.89
2023-10-13T13:49:53.294Z,71.66
2023-10-13T13:52:34.855Z,72.67
2023-10-13T13:55:06.726Z,72.19
2023-10-13T13:57:34.352Z,72.80
2023-10-13T14:00:01.838Z,74.73
2023-10-13T14:02:37.435Z,78.04
2023-10-13T14:05:05.566Z,81.15
2023-10-13T14:07:34.339Z,82.87
2023-10-13T14:10:08.264Z,84.90
2023-10-13T14:12:44.953Z,86.73
2023-10-13T14:15:25.266Z,86.99
2023-10-13T14:17:53.003Z,87.57
2023-10-13T14:20:20.779Z,88.83
2023-10-13T14:22:53.777Z,90.39
2023-10-13T14:25:25.638Z,90.62
2023-10-13T14:27:55.403Z,90.35
2023-10-13T14:30:24.660Z,90.37
2023-10-13T14:32:52.345Z,89.83
2023-10-13T14:35:20.137Z,89.60
2023-10-13T14:37:47.835Z,89.45
2023-10-13T14:40:17.258Z,90.78
2023-10-13T14:42:45.543Z,90.62
2023-10-13T14:45:15.027Z,89.95
2023-10-13T14:47:46.465Z,90.30
2023-10-13T14:50:21.487Z,90.28
2023-10-13T14:52:50.699Z,89.27
2023-10-13T14:55:22.547Z,89.30
2023-10-13T14:57:52.075Z,89.53
2023-10-13T15:00:26.692Z,88.21
2023-10-13T15:02:56.282Z,88.39
2023-10-13T15:05:24.480Z,88.73
2023-10-13T15:07:52.879Z,88.19
2023-10-13T15:10:20.775Z,89.00
2023-10-13T15:12:50.115Z,89.63
2023-10-13T15:15:17.737Z,89.47
2023-10-13T15:17:45.507Z,90.00
2023-10-13T15:20:21.910Z,90.96
2023-10-13T15:23:02.026Z,91.24
2023-10-13T15:25:30.639Z,89.48
2023-10-13T15:28:04.143Z,86.89
2023-10-13T15:30:56.939Z,86.76
2023-10-13T15:33:26.697Z,85.99
2023-10-13T15:35:54.821Z,86.09
2023-10-13T15:38:23.661Z,85.34
2023-10-13T15:40:56.473Z,82.81
2023-10-13T15:43:24.614Z,81.94
2023-10-13T15:45:52.440Z,80.74
2023-10-13T15:48:26.418Z,77.67
2023-10-13T15:50:55.293Z,77.85
2023-10-13T15:53:27.281Z,75.60
2023-10-13T15:55:58.406Z,76.01
2023-10-13T16:01:18.906Z,77.04
2023-10-13T16:06:40.286Z,77.77
2023-10-13T16:09:21.046Z,78.30
2023-10-13T16:11:48.782Z,78.09
2023-10-13T16:14:18.983Z,78.31
2023-10-13T16:16:50.950Z,77.78
2023-10-13T16:19:23.112Z,77.13
2023-10-13T16:21:57.898Z,75.75
2023-10-13T16:27:09.956Z,74.73
2023-10-13T16:29:37.415Z,75.57
2023-10-13T16:32:05.382Z,75.00
2023-10-13T16:34:32.967Z,74.96
2023-10-13T16:37:06.213Z,74.60
2023-10-13T16:39:40.588Z,74.37
2023-10-13T16:42:10.569Z,73.74
2023-10-13T16:44:39.742Z,74.23
2023-10-13T16:47:07.257Z,72.97
2023-10-13T16:49:34.811Z,72.00
2023-10-13T16:52:02.303Z,71.59
2023-10-13T16:54:30.296Z,70.09
2023-10-13T16:56:57.874Z,68.54
2023-10-13T16:59:27.911Z,69.10
2023-10-13T17:01:59.213Z,66.57
2023-10-13T17:04:28.516Z,66.23
2023-10-13T17:06:59.238Z,65.65
2023-10-13T17:09:26.956Z,65.18
2023-10-13T17:11:54.445Z,65.45
2023-10-13T17:14:24.505Z,66.55
2023-10-13T17:16:52.082Z,65.92
2023-10-13T17:19:22.005Z,65.55
2023-10-13T17:21:50.292Z,65.37
2023-10-13T17:24:21.204Z,65.05
2023-10-13T17:26:51.152Z,65.54
2023-10-13T17:29:18.812Z,65.54
2023-10-13T17:31:49.897Z,64.84
2023-10-13T17:34:18.335Z,65.97
2023-10-13T17:36:45.986Z,65.69
2023-10-13T17:39:13.575Z,66.20
2023-10-13T17:41:41.023Z,66.25
2023-10-13T17:44:09.187Z,67.25
2023-10-13T17:46:36.849Z,68.05
2023-10-13T17:49:04.681Z,68.47
2023-10-13T17:51:32.273Z,67.93
2023-10-13T17:54:02.339Z,68.66
2023-10-13T17:56:32.083Z,67.74
2023-10-13T17:59:02.204Z,68.01
2023-10-13T18:01:33.429Z,66.46
2023-10-13T18:04:06.094Z,67.42
2023-10-13T18:06:33.790Z,67.41
2023-10-13T18:09:01.255Z,66.49
2023-10-13T18:11:31.816Z,65.70
2023-10-13T18:14:01.613Z,65.35
2023-10-13T18:16:30.546Z,65.77
2023-10-13T18:18:59.692Z,64.73
2023-10-13T18:21:28.431Z,64.56
2023-10-13T18:23:56.778Z,63.80
2023-10-13T18:26:25.170Z,63.45
2023-10-13T18:29:02.120Z,63.44
2023-10-13T18:31:29.585Z,63.02
2023-10-13T18:33:59.976Z,64.67
2023-10-13T18:36:31.078Z,63.49
2023-10-13T18:39:03.202Z,62.86
2023-10-13T18:41:32.214Z,63.15
2023-10-13T18:44:01.934Z,62.76
2023-10-13T18:46:30.548Z,62.68
2023-10-13T18:49:03.334Z,62.55
2023-10-13T18:51:33.978Z,61.43
2023-10-13T18:54:03.254Z,61.52
2023-10-13T18:56:32.411Z,62.27
2023-10-13T18:59:03.894Z,62.09
2023-10-13T19:01:35.695Z,61.85
2023-10-13T19:04:05.701Z,62.17
2023-10-13T19:06:35.294Z,62.69
2023-10-13T19:09:06.837Z,62.67
2023-10-13T19:11:36.620Z,62.52
2023-10-13T19:14:05.385Z,63.19
2023-10-13T19:16:36.972Z,63.41
2023-10-13T19:19:05.215Z,63.59
2023-10-13T19:21:39.232Z,63.23
2023-10-13T19:24:07.558Z,63.84
2023-10-13T19:26:36.825Z,63.56
2023-10-13T19:29:07.147Z,63.44
2023-10-13T19:31:35.812Z,62.87
2023-10-13T19:34:06.398Z,63.28
2023-10-13T19:36:35.873Z,62.34
2023-10-13T19:39:08.934Z,62.63
2023-10-13T19:41:38.084Z,63.62
2023-10-13T19:44:06.290Z,63.55
2023-10-13T19:46:38.454Z,64.08
2023-10-13T19:49:06.774Z,64.66
2023-10-13T19:51:35.747Z,65.30
2023-10-13T19:54:04.425Z,65.25
2023-10-13T19:56:33.489Z,66.00
2023-10-13T19:59:05.206Z,65.96
2023-10-13T20:01:35.412Z,66.50
2023-10-13T20:04:08.695Z,67.23
2023-10-13T20:06:37.152Z,67.93
2023-10-13T20:09:24.622Z,68.79
2023-10-13T20:11:52.975Z,69.03
2023-10-13T20:14:23.573Z,69.04
2023-10-13T20:16:51.513Z,70.02
2023-10-13T20:19:19.546Z,69.65
2023-10-13T20:21:48.422Z,70.13
2023-10-13T20:24:17.047Z,70.40
2023-10-13T20:26:46.827Z,69.54
2023-10-13T20:29:18.090Z,70.24
2023-10-13T20:31:50.144Z,69.75
2023-10-13T20:34:21.216Z,69.79
2023-10-13T20:36:49.036Z,69.85
2023-10-13T20:39:25.796Z,69.23
2023-10-13T20:41:54.405Z,69.33
2023-10-13T20:44:28.699Z,69.82
2023-10-13T20:46:58.303Z,69.53
2023-10-13T20:49:29.200Z,69.04
2023-10-13T20:52:00.003Z,68.97
2023-10-13T20:54:31.919Z,68.65
2023-10-13T20:56:59.538Z,68.76
2023-10-13T20:59:27.093Z,68.84
2023-10-13T21:01:58.778Z,68.51
2023-10-13T21:04:28.737Z,68.65
2023-10-13T21:06:56.483Z,68.94
2023-10-13T21:09:26.261Z,69.45
2023-10-13T21:11:53.820Z,69.63
2023-10-13T21:14:21.554Z,70.19
2023-10-13T21:16:49.377Z,69.53
2023-10-13T21:19:17.010Z,70.71
2023-10-13T21:21:44.790Z,70.39
2023-10-13T21:24:12.419Z,70.60
2023-10-13T21:26:40.427Z,70.54
2023-10-13T21:29:11.217Z,70.77
2023-10-13T21:31:39.678Z,70.55
2023-10-13T21:34:07.556Z,70.18
2023-10-13T21:36:38.743Z,69.77
2023-10-13T21:39:06.888Z,69.77
2023-10-13T21:41:40.338Z,69.82
2023-10-13T21:44:08.270Z,69.10
2023-10-13T21:46:39.532Z,69.37
2023-10-13T21:49:07.432Z,69.98
2023-10-13T21:51:36.977Z,70.23
2023-10-13T21:54:09.098Z,69.44
2023-10-13T21:56:37.100Z,68.49
2023-10-13T21:59:04.741Z,67.85
2023-10-13T22:01:40.468Z,68.13
2023-10-13T22:04:11.932Z,66.90
2023-10-13T22:06:42.728Z,67.55
2023-10-13T22:09:11.075Z,66.79
2023-10-13T22:11:39.883Z,66.78
2023-10-13T22:14:07.837Z,67.07
2023-10-13T22:16:35.664Z,66.90
2023-10-13T22:19:04.899Z,66.39
2023-10-13T22:21:32.976Z,65.12
2023-10-13T22:24:01.866Z,64.90
2023-10-13T22:26:32.987Z,63.79
2023-10-13T22:29:00.660Z,62.84
2023-10-13T22:31:28.996Z,61.86
2023-10-13T22:33:56.931Z,61.72
2023-10-13T22:36:24.709Z,60.73
2023-10-13T22:38:55.777Z,61.34
2023-10-13T22:41:24.916Z,60.08
2023-10-13T22:43:52.860Z,60.02
2023-10-13T22:46:20.899Z,59.56
2023-10-13T22:48:49.617Z,59.56
2023-10-13T22:51:17.989Z,58.89
2023-10-13T22:53:49.351Z,58.71
2023-10-13T22:56:19.726Z,58.63
2023-10-13T22:58:48.290Z,59.27
2023-10-13T23:01:18.720Z,58.80
2023-10-13T23:03:59.706Z,59.36
2023-10-13T23:06:41.161Z,59.40
2023-10-13T23:09:15.107Z,59.68
2023-10-13T23:11:49.153Z,59.46
2023-10-13T23:14:19.906Z,60.53
2023-10-13T23:16:47.798Z,60.89
2023-10-13T23:19:15.497Z,61.49
2023-10-13T23:21:45.012Z,62.14
2023-10-13T23:24:13.034Z,62.80
2023-10-13T23:26:40.725Z,63.21
2023-10-13T23:29:12.594Z,63.79
2023-10-13T23:31:40.355Z,64.27
2023-10-13T23:34:08.030Z,64.44
2023-10-13T23:36:35.815Z,64.55
2023-10-13T23:39:11.097Z,65.61
2023-10-13T23:41:45.212Z,64.70
2023-10-13T23:44:15.553Z,64.74
2023-10-13T23:46:46.661Z,63.89
2023-10-13T23:49:20.507Z,62.87
2023-10-13T23:51:54.892Z,63.55
2023-10-13T23:54:22.723Z,63.03
2023-10-13T23:56:50.180Z,61.60
2023-10-13T23:59:28.477Z,60.62
